createdAt,value
2018-09-14T00:01:37.030Z,91.90
2018-09-14T00:03:40.857Z,92.70
2018-09-14T00:05:46.131Z,92.10
2018-09-14T00:07:49.943Z,92.40
2018-09-14T00:09:53.926Z,92.10
2018-09-14T00:11:58.495Z,91.90
2018-09-14T00:14:08.746Z,91.80
2018-09-14T00:16:13.658Z,92.10
2018-09-14T00:18:17.524Z,92.40
2018-09-14T00:20:21.503Z,92.50
2018-09-14T00:22:25.461Z,92.60
2018-09-14T00:24:29.219Z,92.30
2018-09-14T00:26:33.100Z,92.40
2018-09-14T00:28:38.159Z,92.30
2018-09-14T00:30:50.917Z,92.40
2018-09-14T00:32:54.995Z,92.30
2018-09-14T00:34:58.881Z,92.50
2018-09-14T00:37:03.891Z,92.80
2018-09-14T00:39:12.781Z,92.60
2018-09-14T00:41:17.103Z,92.60
2018-09-14T00:43:20.977Z,92.50
2018-09-14T00:45:26.450Z,92.40
2018-09-14T00:47:32.314Z,92.90
2018-09-14T00:49:36.288Z,91.80
2018-09-14T00:51:40.401Z,92.20
2018-09-14T00:53:45.479Z,91.60
2018-09-14T00:55:49.416Z,92.20
2018-09-14T00:57:53.329Z,92.30
2018-09-14T00:59:57.912Z,92.30
2018-09-14T01:02:07.500Z,92.20
2018-09-14T01:04:11.504Z,92.40
2018-09-14T01:06:15.461Z,92.60
2018-09-14T01:08:20.426Z,92.40
2018-09-14T01:10:26.926Z,92.30
2018-09-14T01:12:31.144Z,92.20
2018-09-14T01:14:35.121Z,92.20
2018-09-14T01:16:39.009Z,92.60
2018-09-14T01:18:42.874Z,92.20
2018-09-14T01:20:46.778Z,92.50
2018-09-14T01:22:50.704Z,92.00
2018-09-14T01:24:54.543Z,91.90
2018-09-14T01:26:58.381Z,92.10
2018-09-14T01:29:02.218Z,92.20
2018-09-14T01:31:06.601Z,92.80
2018-09-14T01:33:10.390Z,92.80
2018-09-14T01:35:19.499Z,92.10
2018-09-14T01:37:23.766Z,92.20
2018-09-14T01:39:27.608Z,92.90
2018-09-14T01:41:31.848Z,93.10
2018-09-14T01:43:35.668Z,92.70
2018-09-14T01:45:39.430Z,92.60
2018-09-14T01:47:43.429Z,93.40
2018-09-14T01:49:47.220Z,93.40
2018-09-14T01:51:52.143Z,93.30
2018-09-14T01:53:56.504Z,93.30
2018-09-14T01:56:00.259Z,93.40
2018-09-14T01:58:04.567Z,93.90
2018-09-14T02:00:09.773Z,94.00
2018-09-14T02:02:19.487Z,93.80
2018-09-14T02:04:23.313Z,93.60
2018-09-14T02:06:28.042Z,93.80
2018-09-14T02:08:34.173Z,93.80
2018-09-14T02:10:39.775Z,93.90
2018-09-14T02:12:43.603Z,94.00
2018-09-14T02:14:48.641Z,94.00
2018-09-14T02:16:53.225Z,93.90
2018-09-14T02:18:57.119Z,93.80
2018-09-14T02:21:00.980Z,93.30
2018-09-14T02:23:05.054Z,93.80
2018-09-14T02:25:08.956Z,93.80
2018-09-14T02:27:13.238Z,93.70
2018-09-14T02:29:17.236Z,93.40
2018-09-14T02:31:22.450Z,93.80
2018-09-14T02:33:26.874Z,93.30
2018-09-14T02:35:30.994Z,93.50
2018-09-14T02:37:35.447Z,93.50
2018-09-14T02:39:40.565Z,93.50
2018-09-14T02:41:45.935Z,93.00
2018-09-14T02:43:49.894Z,92.90
2018-09-14T02:45:54.535Z,93.50
2018-09-14T02:47:58.662Z,92.80
2018-09-14T02:50:02.466Z,93.30
2018-09-14T02:52:06.887Z,93.30
2018-09-14T02:54:15.761Z,93.50
2018-09-14T02:56:21.124Z,92.90
2018-09-14T02:58:25.207Z,93.30
2018-09-14T03:00:29.061Z,93.40
2018-09-14T03:02:37.775Z,93.40
2018-09-14T03:04:44.418Z,93.50
2018-09-14T03:06:48.182Z,93.60
2018-09-14T03:08:52.097Z,93.20
2018-09-14T03:10:56.053Z,93.50
2018-09-14T03:12:59.846Z,93.00
2018-09-14T03:15:03.918Z,93.30
2018-09-14T03:17:09.252Z,93.70
2018-09-14T03:19:14.252Z,93.60
2018-09-14T03:21:18.446Z,93.60
2018-09-14T03:23:22.239Z,93.50
2018-09-14T03:25:31.377Z,93.30
2018-09-14T03:27:35.197Z,93.80
2018-09-14T03:29:39.145Z,93.80
2018-09-14T03:31:44.969Z,93.70
2018-09-14T03:33:48.812Z,93.70
2018-09-14T03:35:52.610Z,93.60
2018-09-14T03:37:56.507Z,93.70
2018-09-14T03:40:00.811Z,93.50
2018-09-14T03:42:07.069Z,93.60
2018-09-14T03:44:11.438Z,93.50
2018-09-14T03:46:15.562Z,93.10
2018-09-14T03:48:19.638Z,93.40
2018-09-14T03:50:25.433Z,93.40
2018-09-14T03:52:29.598Z,93.40
2018-09-14T03:54:34.180Z,93.50
2018-09-14T03:56:38.468Z,93.10
2018-09-14T03:58:43.140Z,93.80
2018-09-14T04:00:46.984Z,93.50
2018-09-14T04:02:51.288Z,93.50
2018-09-14T04:04:55.704Z,93.50
2018-09-14T04:06:59.456Z,93.40
2018-09-14T04:09:03.479Z,93.10
2018-09-14T04:11:08.933Z,93.50
2018-09-14T04:13:12.765Z,93.30
2018-09-14T04:15:16.623Z,93.50
2018-09-14T04:17:20.451Z,92.90
2018-09-14T04:19:24.531Z,92.80
2018-09-14T04:21:28.583Z,93.00
2018-09-14T04:23:32.425Z,93.70
2018-09-14T04:25:36.544Z,93.70
2018-09-14T04:27:41.013Z,93.90
2018-09-14T04:29:45.651Z,94.00
2018-09-14T04:31:49.469Z,94.00
2018-09-14T04:33:54.952Z,93.50
2018-09-14T04:35:58.993Z,93.90
2018-09-14T04:38:02.872Z,93.60
2018-09-14T04:40:06.778Z,93.60
2018-09-14T04:42:10.627Z,93.80
2018-09-14T04:44:15.590Z,94.10
2018-09-14T04:46:19.438Z,94.10
2018-09-14T04:48:23.339Z,94.30
2018-09-14T04:50:32.457Z,94.30
2018-09-14T04:52:37.355Z,94.30
2018-09-14T04:54:41.384Z,93.80
2018-09-14T04:56:45.257Z,94.10
2018-09-14T04:58:49.313Z,94.30
2018-09-14T05:00:53.213Z,94.10
2018-09-14T05:02:57.055Z,93.80
2018-09-14T05:05:00.900Z,94.00
2018-09-14T05:07:06.881Z,94.30
2018-09-14T05:09:10.930Z,94.10
2018-09-14T05:11:14.859Z,93.90
2018-09-14T05:13:18.668Z,93.50
2018-09-14T05:15:22.555Z,94.00
2018-09-14T05:17:26.356Z,93.40
2018-09-14T05:19:30.286Z,93.70
2018-09-14T05:21:34.197Z,94.00
2018-09-14T05:23:38.054Z,93.70
2018-09-14T05:25:41.993Z,93.80
2018-09-14T05:27:45.897Z,93.90
2018-09-14T05:29:49.737Z,93.90
2018-09-14T05:31:53.579Z,94.10
2018-09-14T05:33:57.430Z,94.00
2018-09-14T05:36:01.268Z,93.70
2018-09-14T05:38:05.129Z,93.30
2018-09-14T05:40:08.982Z,93.40
2018-09-14T05:42:12.765Z,93.70
2018-09-14T05:44:16.608Z,93.80
2018-09-14T05:46:20.408Z,93.90
2018-09-14T05:48:29.214Z,94.20
2018-09-14T05:50:33.210Z,93.80
2018-09-14T05:52:37.070Z,94.00
2018-09-14T05:54:40.961Z,93.60
2018-09-14T05:56:44.852Z,93.70
2018-09-14T05:58:48.859Z,93.20
2018-09-14T06:00:52.828Z,93.30
2018-09-14T06:02:56.776Z,93.40
2018-09-14T06:05:00.712Z,93.30
2018-09-14T06:07:04.549Z,93.30
2018-09-14T06:09:11.083Z,93.20
2018-09-14T06:11:14.966Z,93.70
2018-09-14T06:13:18.804Z,93.60
2018-09-14T06:15:22.657Z,93.50
2018-09-14T06:17:26.606Z,93.30
2018-09-14T06:19:30.459Z,93.40
2018-09-14T06:21:34.423Z,93.30
2018-09-14T06:23:38.254Z,92.90
2018-09-14T06:25:42.202Z,92.90
2018-09-14T06:27:46.043Z,93.00
2018-09-14T06:29:49.885Z,93.20
2018-09-14T06:31:53.857Z,93.20
2018-09-14T06:33:57.705Z,92.90
2018-09-14T06:36:01.591Z,92.30
2018-09-14T06:38:05.546Z,92.20
2018-09-14T06:40:09.511Z,91.70
2018-09-14T06:42:13.438Z,91.40
2018-09-14T06:44:17.282Z,91.40
2018-09-14T06:46:21.161Z,91.40
2018-09-14T06:48:24.994Z,91.90
2018-09-14T06:50:28.923Z,91.90
2018-09-14T06:52:32.749Z,91.70
2018-09-14T06:54:36.666Z,91.40
2018-09-14T06:56:40.561Z,91.90
2018-09-14T06:58:44.418Z,92.00
2018-09-14T07:00:48.216Z,92.00
2018-09-14T07:02:52.019Z,91.40
2018-09-14T07:04:56.002Z,90.30
2018-09-14T07:06:59.921Z,90.80
2018-09-14T07:09:04.406Z,90.20
2018-09-14T07:11:08.255Z,90.50
2018-09-14T07:13:12.016Z,88.70
2018-09-14T07:15:15.886Z,88.10
2018-09-14T07:17:19.650Z,87.60
2018-09-14T07:19:23.521Z,90.10
2018-09-14T07:21:27.653Z,90.10
2018-09-14T07:23:32.585Z,89.20
2018-09-14T07:25:36.421Z,88.10
2018-09-14T07:27:40.968Z,82.10
2018-09-14T07:29:45.429Z,79.80
2018-09-14T07:31:49.550Z,80.80
2018-09-14T07:33:53.280Z,82.70
2018-09-14T07:35:57.076Z,82.60
2018-09-14T07:38:00.845Z,84.80
2018-09-14T07:40:05.747Z,86.90
2018-09-14T07:42:09.615Z,86.70
2018-09-14T07:44:13.493Z,86.00
2018-09-14T07:46:17.387Z,84.10
2018-09-14T07:48:21.225Z,85.40
2018-09-14T07:50:25.125Z,86.50
2018-09-14T07:52:29.015Z,83.90
2018-09-14T07:54:33.148Z,82.60
2018-09-14T07:56:36.992Z,83.00
2018-09-14T07:58:40.950Z,84.80
2018-09-14T08:00:45.026Z,85.50
2018-09-14T08:02:49.041Z,85.50
2018-09-14T08:04:53.472Z,85.30
2018-09-14T08:06:57.705Z,84.30
2018-09-14T08:09:01.610Z,81.50
2018-09-14T08:11:06.787Z,80.30
2018-09-14T08:13:10.593Z,81.60
2018-09-14T08:15:15.450Z,83.40
2018-09-14T08:17:19.395Z,84.40
2018-09-14T08:19:23.778Z,81.40
2018-09-14T08:21:27.729Z,81.20
2018-09-14T08:23:31.672Z,81.90
2018-09-14T08:25:38.507Z,82.20
2018-09-14T08:27:42.426Z,81.40
2018-09-14T08:29:46.354Z,81.60
2018-09-14T08:31:50.254Z,80.50
2018-09-14T08:33:54.455Z,81.80
2018-09-14T08:35:58.280Z,81.10
2018-09-14T08:38:02.227Z,81.70
2018-09-14T08:40:06.068Z,80.30
2018-09-14T08:42:10.062Z,81.20
2018-09-14T08:44:13.891Z,81.00
2018-09-14T08:46:17.835Z,80.40
2018-09-14T08:48:21.736Z,76.10
2018-09-14T08:50:25.627Z,75.70
2018-09-14T08:52:29.410Z,73.90
2018-09-14T08:54:33.327Z,75.40
2018-09-14T08:56:37.090Z,73.50
2018-09-14T08:58:40.964Z,75.50
2018-09-14T09:00:45.162Z,74.70
2018-09-14T09:02:48.991Z,69.70
2018-09-14T09:04:52.849Z,70.20
2018-09-14T09:06:56.758Z,67.50
2018-09-14T09:09:00.657Z,68.90
2018-09-14T09:11:04.538Z,69.50
2018-09-14T09:13:08.395Z,69.60
2018-09-14T09:15:12.338Z,67.20
2018-09-14T09:17:16.281Z,63.90
2018-09-14T09:19:20.165Z,61.00
2018-09-14T09:21:24.135Z,60.30
2018-09-14T09:23:28.266Z,58.80
2018-09-14T09:25:32.471Z,55.60
2018-09-14T09:27:36.368Z,57.50
2018-09-14T09:29:40.251Z,58.00
2018-09-14T09:31:44.163Z,56.90
2018-09-14T09:33:47.927Z,59.50
2018-09-14T09:35:51.706Z,60.00
2018-09-14T09:37:55.487Z,57.30
2018-09-14T09:39:59.314Z,56.80
2018-09-14T09:42:03.074Z,56.50
2018-09-14T09:44:07.184Z,58.10
2018-09-14T09:46:11.650Z,59.00
2018-09-14T09:48:15.446Z,58.40
2018-09-14T09:50:19.190Z,56.30
2018-09-14T09:52:23.049Z,58.20
2018-09-14T09:54:26.924Z,55.00
2018-09-14T09:56:30.790Z,55.10
2018-09-14T09:58:34.631Z,56.90
2018-09-14T10:00:43.588Z,57.50
2018-09-14T10:02:52.618Z,55.80
2018-09-14T10:05:01.755Z,55.20
2018-09-14T10:07:05.601Z,55.70
2018-09-14T10:09:10.589Z,54.80
2018-09-14T10:11:14.482Z,55.90
2018-09-14T10:13:18.366Z,61.70
2018-09-14T10:15:22.248Z,56.90
2018-09-14T10:17:26.174Z,46.30
2018-09-14T10:19:29.926Z,44.50
2018-09-14T10:21:33.883Z,42.50
2018-09-14T10:23:37.710Z,43.10
2018-09-14T10:25:41.578Z,42.50
2018-09-14T10:27:45.543Z,44.40
2018-09-14T10:29:49.446Z,41.90
2018-09-14T10:31:53.255Z,37.60
2018-09-14T10:33:57.154Z,38.20
2018-09-14T10:36:00.928Z,36.30
2018-09-14T10:38:05.604Z,39.20
2018-09-14T10:40:09.449Z,35.40
2018-09-14T10:42:13.383Z,35.70
2018-09-14T10:44:17.223Z,31.20
2018-09-14T10:46:21.117Z,33.90
2018-09-14T10:48:24.923Z,30.50
2018-09-14T10:50:28.714Z,28.00
2018-09-14T10:52:32.483Z,28.40
2018-09-14T10:54:36.421Z,28.40
2018-09-14T10:56:41.743Z,29.50
2018-09-14T10:58:45.624Z,29.80
2018-09-14T11:00:49.530Z,35.60
2018-09-14T11:02:54.945Z,36.60
2018-09-14T11:04:58.909Z,34.40
2018-09-14T11:07:02.854Z,30.50
2018-09-14T11:09:09.972Z,29.40
2018-09-14T11:11:13.893Z,32.80
2018-09-14T11:13:17.668Z,30.40
2018-09-14T11:15:21.557Z,26.70
2018-09-14T11:17:25.320Z,27.60
2018-09-14T11:19:29.852Z,25.40
2018-09-14T11:21:33.939Z,27.00
2018-09-14T11:23:37.812Z,25.90
2018-09-14T11:25:41.578Z,22.80
2018-09-14T11:27:45.547Z,25.50
2018-09-14T11:29:49.309Z,22.70
2018-09-14T11:31:53.268Z,25.70
2018-09-14T11:33:57.823Z,26.40
2018-09-14T11:36:01.801Z,26.30
2018-09-14T11:38:05.615Z,24.80
2018-09-14T11:40:09.588Z,26.50
2018-09-14T11:42:13.408Z,24.30
2018-09-14T11:44:17.257Z,22.70
2018-09-14T11:46:21.432Z,25.10
2018-09-14T11:48:25.231Z,24.90
2018-09-14T11:50:29.049Z,22.50
2018-09-14T11:52:32.826Z,23.40
2018-09-14T11:54:36.759Z,24.90
2018-09-14T11:56:40.640Z,25.10
2018-09-14T11:58:44.450Z,26.10
2018-09-14T12:00:49.112Z,26.00
2018-09-14T12:02:52.853Z,26.40
2018-09-14T12:04:56.870Z,24.30
2018-09-14T12:07:00.652Z,24.40
2018-09-14T12:09:06.215Z,23.90
2018-09-14T12:11:09.996Z,24.70
2018-09-14T12:13:13.873Z,23.90
2018-09-14T12:15:17.671Z,22.60
2018-09-14T12:17:21.548Z,22.20
2018-09-14T12:19:25.358Z,23.30
2018-09-14T12:21:29.217Z,24.20
2018-09-14T12:23:33.861Z,21.70
2018-09-14T12:25:39.341Z,23.10
2018-09-14T12:27:43.088Z,23.70
2018-09-14T12:29:46.924Z,24.30
2018-09-14T12:31:50.674Z,24.40
2018-09-14T12:33:54.547Z,25.00
2018-09-14T12:35:58.377Z,25.20
2018-09-14T12:38:02.239Z,25.00
2018-09-14T12:40:06.037Z,25.00
2018-09-14T12:42:09.916Z,24.90
2018-09-14T12:44:13.670Z,26.10
2018-09-14T12:46:17.922Z,25.10
2018-09-14T12:48:21.684Z,25.20
2018-09-14T12:50:25.576Z,22.80
2018-09-14T12:52:29.391Z,23.20
2018-09-14T12:54:33.183Z,23.40
2018-09-14T12:56:37.531Z,24.80
2018-09-14T12:58:41.439Z,21.90
2018-09-14T13:00:45.238Z,22.80
2018-09-14T13:02:49.056Z,21.00
2018-09-14T13:04:52.900Z,21.50
2018-09-14T13:06:56.781Z,23.70
2018-09-14T13:09:00.600Z,23.80
2018-09-14T13:11:04.634Z,22.40
2018-09-14T13:13:08.766Z,24.30
2018-09-14T13:15:13.127Z,21.20
2018-09-14T13:17:16.996Z,20.60
2018-09-14T13:19:21.446Z,17.60
2018-09-14T13:21:25.369Z,19.10
2018-09-14T13:23:33.306Z,18.90
2018-09-14T13:25:44.688Z,19.70
2018-09-14T13:27:48.552Z,17.80
2018-09-14T13:29:52.427Z,18.90
2018-09-14T13:31:56.337Z,16.70
2018-09-14T13:34:00.289Z,17.40
2018-09-14T13:36:04.069Z,18.70
2018-09-14T13:38:08.179Z,18.40
2018-09-14T13:40:11.965Z,20.80
2018-09-14T13:42:15.878Z,20.90
2018-09-14T13:44:19.630Z,18.60
2018-09-14T13:46:23.735Z,14.40
2018-09-14T13:48:27.525Z,13.70
2018-09-14T13:50:31.391Z,14.40
2018-09-14T13:52:35.151Z,14.60
2018-09-14T13:54:39.004Z,14.90
2018-09-14T13:56:43.402Z,14.40
2018-09-14T13:58:47.180Z,16.60
2018-09-14T14:00:51.056Z,14.70
2018-09-14T14:02:54.916Z,13.40
2018-09-14T14:04:58.781Z,13.70
2018-09-14T14:07:02.667Z,12.40
2018-09-14T14:09:10.346Z,15.90
2018-09-14T14:11:14.152Z,15.30
2018-09-14T14:13:17.979Z,14.30
2018-09-14T14:15:21.789Z,12.90
2018-09-14T14:17:25.654Z,11.90
2018-09-14T14:19:29.681Z,12.20
2018-09-14T14:21:33.589Z,10.30
2018-09-14T14:23:37.387Z,12.50
2018-09-14T14:25:41.291Z,13.40
2018-09-14T14:27:45.073Z,11.10
2018-09-14T14:29:48.943Z,12.30
2018-09-14T14:31:52.770Z,12.80
2018-09-14T14:34:00.522Z,13.60
2018-09-14T14:36:04.451Z,13.00
2018-09-14T14:38:08.394Z,15.00
2018-09-14T14:40:12.441Z,13.90
2018-09-14T14:42:16.308Z,12.70
2018-09-14T14:44:20.156Z,13.10
2018-09-14T14:46:23.964Z,12.50
2018-09-14T14:48:28.703Z,12.90
2018-09-14T14:50:33.256Z,13.40
2018-09-14T14:52:37.073Z,13.10
2018-09-14T14:54:41.802Z,15.10
2018-09-14T14:56:45.735Z,16.30
2018-09-14T14:58:49.598Z,16.00
2018-09-14T15:00:53.395Z,15.90
2018-09-14T15:02:58.248Z,18.00
2018-09-14T15:05:02.078Z,15.30
2018-09-14T15:07:06.010Z,15.50
2018-09-14T15:09:10.581Z,14.40
2018-09-14T15:11:14.501Z,14.70
2018-09-14T15:13:18.302Z,15.30
2018-09-14T15:15:22.169Z,15.20
2018-09-14T15:17:27.066Z,15.20
2018-09-14T15:19:30.958Z,15.40
2018-09-14T15:21:34.827Z,16.00
2018-09-14T15:23:38.698Z,16.70
2018-09-14T15:25:42.470Z,17.50
2018-09-14T15:27:46.274Z,16.80
2018-09-14T15:29:50.116Z,15.30
2018-09-14T15:31:54.083Z,15.60
2018-09-14T15:33:57.885Z,15.60
2018-09-14T15:36:01.819Z,16.30
2018-09-14T15:38:05.685Z,15.40
2018-09-14T15:40:09.535Z,16.60
2018-09-14T15:42:13.311Z,16.30
2018-09-14T15:44:19.191Z,18.60
2018-09-14T15:46:26.694Z,17.70
2018-09-14T15:48:30.479Z,18.40
2018-09-14T15:50:34.300Z,17.00
2018-09-14T15:52:38.156Z,18.60
2018-09-14T15:54:42.493Z,19.00
2018-09-14T15:56:46.331Z,19.60
2018-09-14T15:58:50.173Z,19.80
2018-09-14T16:00:53.968Z,20.00
2018-09-14T16:02:57.783Z,21.10
2018-09-14T16:05:01.540Z,21.60
2018-09-14T16:07:06.413Z,21.30
2018-09-14T16:09:11.088Z,20.90
2018-09-14T16:11:15.024Z,22.30
2018-09-14T16:13:18.813Z,22.30
2018-09-14T16:15:22.665Z,21.50
2018-09-14T16:17:26.543Z,21.70
2018-09-14T16:19:30.362Z,21.70
2018-09-14T16:21:34.145Z,22.50
2018-09-14T16:23:38.064Z,23.10
2018-09-14T16:25:41.818Z,23.00
2018-09-14T16:27:45.780Z,24.10
2018-09-14T16:29:49.537Z,23.90
2018-09-14T16:31:53.577Z,24.30
2018-09-14T16:33:57.260Z,24.70
2018-09-14T16:36:01.061Z,24.50
2018-09-14T16:38:04.935Z,24.90
2018-09-14T16:40:08.705Z,25.30
2018-09-14T16:42:12.485Z,25.10
2018-09-14T16:44:16.256Z,24.70
2018-09-14T16:46:20.082Z,26.00
2018-09-14T16:48:23.896Z,26.20
2018-09-14T16:50:27.696Z,26.40
2018-09-14T16:52:31.499Z,26.30
2018-09-14T16:54:35.248Z,26.60
2018-09-14T16:56:39.074Z,27.40
2018-09-14T16:58:42.825Z,27.50
2018-09-14T17:00:46.666Z,27.00
2018-09-14T17:02:50.450Z,28.40
2018-09-14T17:04:54.243Z,29.20
2018-09-14T17:06:58.058Z,28.80
2018-09-14T17:09:02.009Z,28.00
2018-09-14T17:11:05.858Z,29.90
2018-09-14T17:13:09.772Z,29.90
2018-09-14T17:15:13.501Z,30.00
2018-09-14T17:17:17.371Z,30.10
2018-09-14T17:19:21.130Z,30.60
2018-09-14T17:21:24.974Z,31.00
2018-09-14T17:23:28.761Z,31.70
2018-09-14T17:25:32.571Z,32.10
2018-09-14T17:27:36.407Z,32.20
2018-09-14T17:29:40.162Z,32.80
2018-09-14T17:31:43.934Z,32.30
2018-09-14T17:33:47.779Z,31.70
2018-09-14T17:35:51.554Z,33.10
2018-09-14T17:37:55.553Z,34.20
2018-09-14T17:39:59.298Z,35.90
2018-09-14T17:42:03.165Z,35.10
2018-09-14T17:44:07.040Z,36.20
2018-09-14T17:46:10.855Z,35.30
2018-09-14T17:48:14.636Z,37.10
2018-09-14T17:50:18.440Z,39.00
2018-09-14T17:52:22.190Z,39.00
2018-09-14T17:54:26.028Z,37.50
2018-09-14T17:56:29.800Z,39.20
2018-09-14T17:58:33.684Z,39.80
2018-09-14T18:00:37.438Z,38.50
2018-09-14T18:02:41.244Z,39.70
2018-09-14T18:04:45.048Z,40.00
2018-09-14T18:06:48.847Z,40.20
2018-09-14T18:08:52.662Z,40.30
2018-09-14T18:10:56.721Z,41.50
2018-09-14T18:13:00.505Z,39.60
2018-09-14T18:15:04.671Z,40.10
2018-09-14T18:17:08.608Z,40.20
2018-09-14T18:19:12.525Z,40.90
2018-09-14T18:21:16.356Z,41.80
2018-09-14T18:23:20.184Z,41.20
2018-09-14T18:25:23.922Z,41.30
2018-09-14T18:27:27.710Z,41.00
2018-09-14T18:29:31.506Z,40.80
2018-09-14T18:31:35.308Z,41.20
2018-09-14T18:33:39.094Z,41.60
2018-09-14T18:35:45.434Z,40.70
2018-09-14T18:37:49.444Z,42.00
2018-09-14T18:39:53.278Z,42.00
2018-09-14T18:41:57.056Z,40.50
2018-09-14T18:44:00.853Z,41.10
2018-09-14T18:46:04.649Z,39.40
2018-09-14T18:48:08.411Z,41.00
2018-09-14T18:50:12.623Z,41.50
2018-09-14T18:52:16.502Z,41.60
2018-09-14T18:54:20.351Z,42.50
2018-09-14T18:56:24.254Z,42.10
2018-09-14T18:58:28.056Z,42.40
2018-09-14T19:00:31.934Z,41.50
2018-09-14T19:02:39.836Z,42.30
2018-09-14T19:04:45.666Z,42.20
2018-09-14T19:06:52.970Z,42.60
2018-09-14T19:09:00.850Z,43.20
2018-09-14T19:11:04.848Z,43.00
2018-09-14T19:13:08.728Z,43.30
2018-09-14T19:15:12.553Z,43.60
2018-09-14T19:17:16.420Z,43.40
2018-09-14T19:19:20.324Z,43.60
2018-09-14T19:21:24.201Z,43.50
2018-09-14T19:23:27.964Z,43.50
2018-09-14T19:25:31.821Z,43.40
2018-09-14T19:27:35.949Z,42.50
2018-09-14T19:29:39.808Z,42.20
2018-09-14T19:31:43.638Z,46.40
2018-09-14T19:33:47.532Z,47.50
2018-09-14T19:35:52.518Z,48.40
2018-09-14T19:37:56.292Z,49.10
2018-09-14T19:40:00.099Z,50.60
2018-09-14T19:42:03.926Z,51.50
2018-09-14T19:44:08.040Z,52.40
2018-09-14T19:46:11.851Z,52.10
2018-09-14T19:48:16.413Z,52.60
2018-09-14T19:50:20.345Z,53.20
2018-09-14T19:52:24.122Z,52.10
2018-09-14T19:54:27.955Z,53.80
2018-09-14T19:56:32.027Z,53.80
2018-09-14T19:58:35.796Z,55.10
2018-09-14T20:00:39.661Z,56.10
2018-09-14T20:02:50.688Z,56.00
2018-09-14T20:04:58.148Z,55.90
2018-09-14T20:07:02.588Z,56.20
2018-09-14T20:09:09.747Z,56.30
2018-09-14T20:11:14.109Z,55.20
2018-09-14T20:13:18.482Z,53.80
2018-09-14T20:15:24.688Z,53.40
2018-09-14T20:17:28.459Z,53.20
2018-09-14T20:19:32.442Z,54.00
2018-09-14T20:21:36.251Z,54.50
2018-09-14T20:23:40.119Z,55.70
2018-09-14T20:25:44.203Z,56.30
2018-09-14T20:27:47.981Z,57.00
2018-09-14T20:29:51.725Z,55.60
2018-09-14T20:31:55.575Z,56.30
2018-09-14T20:33:59.319Z,57.50
2018-09-14T20:36:03.138Z,58.00
2018-09-14T20:38:06.919Z,58.30
2018-09-14T20:40:10.794Z,57.90
2018-09-14T20:42:14.601Z,58.50
2018-09-14T20:44:18.670Z,58.30
2018-09-14T20:46:22.506Z,57.60
2018-09-14T20:48:26.320Z,59.70
2018-09-14T20:50:30.109Z,60.80
2018-09-14T20:52:34.135Z,60.60
2018-09-14T20:54:37.887Z,61.20
2018-09-14T20:56:41.710Z,62.20
2018-09-14T20:58:47.038Z,62.40
2018-09-14T21:00:50.987Z,62.10
2018-09-14T21:02:55.287Z,62.00
2018-09-14T21:04:59.107Z,62.40
2018-09-14T21:07:02.950Z,62.40
2018-09-14T21:09:08.650Z,62.40
2018-09-14T21:11:12.455Z,62.60
2018-09-14T21:13:16.345Z,62.90
2018-09-14T21:15:20.101Z,62.70
2018-09-14T21:17:23.882Z,62.70
2018-09-14T21:19:27.664Z,62.70
2018-09-14T21:21:31.580Z,62.60
2018-09-14T21:23:35.352Z,62.80
2018-09-14T21:25:39.119Z,62.50
2018-09-14T21:27:43.168Z,62.60
2018-09-14T21:29:47.054Z,63.10
2018-09-14T21:31:50.872Z,63.90
2018-09-14T21:33:54.662Z,64.00
2018-09-14T21:35:58.416Z,65.20
2018-09-14T21:38:02.322Z,64.60
2018-09-14T21:40:06.274Z,65.20
2018-09-14T21:42:11.730Z,65.00
2018-09-14T21:44:15.515Z,64.80
2018-09-14T21:46:19.372Z,64.70
2018-09-14T21:48:23.173Z,64.40
2018-09-14T21:50:26.915Z,64.50
2018-09-14T21:52:30.724Z,63.10
2018-09-14T21:54:34.563Z,64.20
2018-09-14T21:56:38.328Z,63.60
2018-09-14T21:58:43.137Z,63.80
2018-09-14T22:00:52.063Z,63.70
2018-09-14T22:02:55.870Z,63.80
2018-09-14T22:05:01.100Z,64.00
2018-09-14T22:07:04.982Z,64.40
2018-09-14T22:09:09.860Z,65.60
2018-09-14T22:11:13.605Z,65.60
2018-09-14T22:13:17.544Z,65.50
2018-09-14T22:15:21.274Z,64.60
2018-09-14T22:17:25.127Z,65.10
2018-09-14T22:19:29.845Z,64.50
2018-09-14T22:21:33.767Z,63.50
2018-09-14T22:23:38.076Z,64.40
2018-09-14T22:25:42.001Z,64.50
2018-09-14T22:27:45.845Z,63.50
2018-09-14T22:29:49.631Z,63.30
2018-09-14T22:31:53.474Z,64.80
2018-09-14T22:33:57.238Z,64.50
2018-09-14T22:36:01.934Z,64.80
2018-09-14T22:38:05.750Z,64.70
2018-09-14T22:40:10.049Z,63.20
2018-09-14T22:42:13.917Z,64.30
2018-09-14T22:44:18.025Z,63.40
2018-09-14T22:46:21.909Z,63.30
2018-09-14T22:48:25.723Z,65.30
2018-09-14T22:50:29.490Z,65.10
2018-09-14T22:52:33.271Z,64.00
2018-09-14T22:54:37.146Z,65.30
2018-09-14T22:56:42.208Z,64.70
2018-09-14T22:58:46.190Z,64.90
2018-09-14T23:00:55.239Z,66.70
2018-09-14T23:02:59.046Z,65.60
2018-09-14T23:05:03.134Z,66.90
2018-09-14T23:07:07.034Z,67.00
2018-09-14T23:09:10.948Z,67.60
2018-09-14T23:11:14.730Z,67.60
2018-09-14T23:13:18.643Z,66.10
2018-09-14T23:15:22.420Z,67.10
2018-09-14T23:17:26.215Z,67.80
2018-09-14T23:19:32.386Z,67.60
2018-09-14T23:21:36.431Z,67.40
2018-09-14T23:23:40.231Z,67.40
2018-09-14T23:25:43.975Z,66.70
2018-09-14T23:27:59.642Z,65.50
2018-09-14T23:30:04.184Z,67.30
2018-09-14T23:32:08.031Z,67.50
2018-09-14T23:34:17.797Z,69.00
2018-09-14T23:36:22.746Z,70.10
2018-09-14T23:38:29.836Z,70.30
2018-09-14T23:40:34.261Z,69.20
2018-09-14T23:42:38.334Z,71.00
2018-09-14T23:44:51.500Z,70.90
2018-09-14T23:46:56.625Z,70.60
2018-09-14T23:49:01.566Z,69.20
2018-09-14T23:51:05.654Z,70.70
2018-09-14T23:53:11.542Z,71.10
2018-09-14T23:55:15.485Z,71.30
2018-09-14T23:57:19.276Z,71.20
2018-09-14T23:59:23.224Z,70.50
